Terminal Aerodrome Forecast
Issued by NWS Rapid City, SD

Home | Current Version | Previous Version | Graphics & Text | Print | Product List | Glossary On
Versions: 1 2 3 4 5 6 7 8 9 10 11 12 13 14 15 16 17 18 19 20 21 22 23 24 25
218
FTUS43 KUNR 131120
TAFRAP
TAF
KRAP 131120Z 1312/1412 14008KT P6SM SCT025 BKN070
     FM131700 14010KT P6SM BKN035
      TEMPO 1319/1323 3SM -SN BKN015
     FM140600 33007KT P6SM OVC120=

USA.gov is the U.S. government's official web portal to all federal, state and local government web resources and services.